createdAt,value
2022-09-14T00:01:23.840Z,70.59
2022-09-14T00:03:46.362Z,70.81
2022-09-14T00:06:15.393Z,70.88
2022-09-14T00:08:43.060Z,70.75
2022-09-14T00:11:12.747Z,70.92
2022-09-14T00:13:41.776Z,70.96
2022-09-14T00:16:12.942Z,71.30
2022-09-14T00:18:39.593Z,71.57
2022-09-14T00:21:08.426Z,71.85
2022-09-14T00:23:37.349Z,71.80
2022-09-14T00:26:09.770Z,72.06
2022-09-14T00:28:44.753Z,72.70
2022-09-14T00:31:12.331Z,72.88
2022-09-14T00:33:42.308Z,73.68
2022-09-14T00:36:15.351Z,73.82
2022-09-14T00:38:42.409Z,74.25
2022-09-14T00:41:13.503Z,74.82
2022-09-14T00:43:54.955Z,74.99
2022-09-14T00:46:21.750Z,76.01
2022-09-14T00:48:48.641Z,76.97
2022-09-14T00:51:17.916Z,77.74
2022-09-14T00:53:44.772Z,78.18
2022-09-14T00:56:11.506Z,78.50
2022-09-14T00:58:38.730Z,78.70
2022-09-14T01:01:05.703Z,78.91
2022-09-14T01:03:32.360Z,79.50
2022-09-14T01:06:04.903Z,79.92
2022-09-14T01:09:20.553Z,80.06
2022-09-14T01:12:11.224Z,80.25
2022-09-14T01:14:43.000Z,80.60
2022-09-14T01:17:27.158Z,80.67
2022-09-14T01:20:22.472Z,80.88
2022-09-14T01:23:03.885Z,80.89
2022-09-14T01:25:40.089Z,80.95
2022-09-14T01:28:23.708Z,81.21
2022-09-14T01:30:52.900Z,81.44
2022-09-14T01:33:30.537Z,81.72
2022-09-14T01:36:01.258Z,81.99
2022-09-14T01:38:33.937Z,82.09
2022-09-14T01:41:05.205Z,82.45
2022-09-14T01:43:37.028Z,82.42
2022-09-14T01:46:10.319Z,82.51
2022-09-14T01:48:43.063Z,82.93
2022-09-14T01:51:16.202Z,83.15
2022-09-14T01:53:50.367Z,83.10
2022-09-14T01:56:24.864Z,83.51
2022-09-14T01:58:57.213Z,83.70
2022-09-14T02:01:54.162Z,83.94
2022-09-14T02:04:34.607Z,84.17
2022-09-14T02:07:01.278Z,84.28
2022-09-14T02:09:28.418Z,84.85
2022-09-14T02:12:00.511Z,85.45
2022-09-14T02:14:27.310Z,86.23
2022-09-14T02:16:54.062Z,86.87
2022-09-14T02:19:23.810Z,87.18
2022-09-14T02:21:50.681Z,87.47
2022-09-14T02:24:18.076Z,87.91
2022-09-14T02:26:47.209Z,88.46
2022-09-14T02:29:13.898Z,88.79
2022-09-14T02:32:08.668Z,89.37
2022-09-14T02:34:56.746Z,89.65
2022-09-14T02:37:34.356Z,90.08
2022-09-14T02:40:08.417Z,90.54
2022-09-14T02:42:55.962Z,91.13
2022-09-14T02:45:36.045Z,91.35
2022-09-14T02:48:11.547Z,91.28
2022-09-14T02:51:01.522Z,91.58
2022-09-14T02:53:47.754Z,91.20
2022-09-14T02:56:16.370Z,91.38
2022-09-14T02:58:44.722Z,91.46
2022-09-14T03:01:17.657Z,91.85
2022-09-14T03:03:44.402Z,91.69
2022-09-14T03:06:10.973Z,91.73
2022-09-14T03:08:37.652Z,91.45
2022-09-14T03:11:05.602Z,91.99
2022-09-14T03:13:34.547Z,92.04
2022-09-14T03:16:06.396Z,91.92
2022-09-14T03:18:34.750Z,91.97
2022-09-14T03:21:05.064Z,91.99
2022-09-14T03:23:39.184Z,92.43
2022-09-14T03:26:10.539Z,92.89
2022-09-14T03:28:37.349Z,92.67
2022-09-14T03:31:06.417Z,92.59
2022-09-14T03:33:33.269Z,92.65
2022-09-14T03:36:00.406Z,93.05
2022-09-14T03:38:30.081Z,92.93
2022-09-14T03:40:59.787Z,92.70
2022-09-14T03:43:26.733Z,92.96
2022-09-14T03:45:53.284Z,92.72
2022-09-14T03:48:19.852Z,93.03
2022-09-14T03:50:46.454Z,92.88
2022-09-14T03:53:13.018Z,92.64
2022-09-14T03:55:40.779Z,92.59
2022-09-14T03:58:07.318Z,92.65
2022-09-14T04:00:33.861Z,93.01
2022-09-14T04:03:00.597Z,93.03
2022-09-14T04:05:27.207Z,92.77
2022-09-14T04:07:53.768Z,92.92
2022-09-14T04:10:20.344Z,93.17
2022-09-14T04:12:46.960Z,93.08
2022-09-14T04:15:13.506Z,93.17
2022-09-14T04:17:40.649Z,92.80
2022-09-14T04:20:08.123Z,93.41
2022-09-14T04:22:34.717Z,93.54
2022-09-14T04:25:01.264Z,93.79
2022-09-14T04:27:27.858Z,93.68
2022-09-14T04:29:54.383Z,93.90
2022-09-14T04:32:20.938Z,93.96
2022-09-14T04:34:49.270Z,93.64
2022-09-14T04:37:15.831Z,93.77
2022-09-14T04:39:42.539Z,94.01
2022-09-14T04:42:09.243Z,94.06
2022-09-14T04:44:35.814Z,93.99
2022-09-14T04:47:02.437Z,93.84
2022-09-14T04:49:28.989Z,93.81
2022-09-14T04:51:55.574Z,94.13
2022-09-14T04:54:22.158Z,93.99
2022-09-14T04:56:48.825Z,94.33
2022-09-14T04:59:15.962Z,94.13
2022-09-14T05:01:45.119Z,94.55
2022-09-14T05:04:12.298Z,94.34
2022-09-14T05:06:41.164Z,94.31
2022-09-14T05:09:13.473Z,94.29
2022-09-14T05:11:40.735Z,94.58
2022-09-14T05:14:07.564Z,94.39
2022-09-14T05:16:36.963Z,94.49
2022-09-14T05:19:09.425Z,94.26
2022-09-14T05:21:37.725Z,94.41
2022-09-14T05:24:08.188Z,94.66
2022-09-14T05:26:35.354Z,94.40
2022-09-14T05:29:02.516Z,94.62
2022-09-14T05:31:31.076Z,94.69
2022-09-14T05:33:58.238Z,94.74
2022-09-14T05:36:25.680Z,94.52
2022-09-14T05:38:52.995Z,94.68
2022-09-14T05:41:19.741Z,94.46
2022-09-14T05:43:46.470Z,94.50
2022-09-14T05:46:16.242Z,94.82
2022-09-14T05:48:43.237Z,94.74
2022-09-14T05:51:13.948Z,94.88
2022-09-14T05:53:40.890Z,95.24
2022-09-14T05:56:10.413Z,95.30
2022-09-14T05:58:38.385Z,95.81
2022-09-14T06:01:09.039Z,95.86
2022-09-14T06:03:36.005Z,95.91
2022-09-14T06:06:03.786Z,95.76
2022-09-14T06:08:30.430Z,95.68
2022-09-14T06:10:57.265Z,95.46
2022-09-14T06:13:24.206Z,95.59
2022-09-14T06:15:50.768Z,95.30
2022-09-14T06:18:17.291Z,95.60
2022-09-14T06:20:51.582Z,95.48
2022-09-14T06:23:18.438Z,95.01
2022-09-14T06:25:45.064Z,95.18
2022-09-14T06:28:11.607Z,95.14
2022-09-14T06:30:38.186Z,95.25
2022-09-14T06:33:05.565Z,95.37
2022-09-14T06:35:38.730Z,95.08
2022-09-14T06:38:05.361Z,95.25
2022-09-14T06:40:32.113Z,95.17
2022-09-14T06:43:02.231Z,95.18
2022-09-14T06:45:32.664Z,95.16
2022-09-14T06:47:59.236Z,95.39
2022-09-14T06:50:25.887Z,95.33
2022-09-14T06:52:52.507Z,95.50
2022-09-14T06:55:19.108Z,95.20
2022-09-14T06:57:47.707Z,95.24
2022-09-14T07:00:14.924Z,95.09
2022-09-14T07:02:41.540Z,95.31
2022-09-14T07:05:08.588Z,95.28
2022-09-14T07:07:35.131Z,95.45
2022-09-14T07:10:01.687Z,95.38
2022-09-14T07:12:28.342Z,95.21
2022-09-14T07:14:54.886Z,94.85
2022-09-14T07:17:21.406Z,94.99
2022-09-14T07:19:47.955Z,95.06
2022-09-14T07:22:14.522Z,94.78
2022-09-14T07:24:41.072Z,94.88
2022-09-14T07:27:07.639Z,94.49
2022-09-14T07:29:34.207Z,94.61
2022-09-14T07:32:00.844Z,94.37
2022-09-14T07:34:27.383Z,94.12
2022-09-14T07:36:54.181Z,93.91
2022-09-14T07:39:20.760Z,94.31
2022-09-14T07:41:47.362Z,93.87
2022-09-14T07:44:16.293Z,93.39
2022-09-14T07:46:44.554Z,93.18
2022-09-14T07:49:12.044Z,93.31
2022-09-14T07:51:39.003Z,92.66
2022-09-14T07:54:07.501Z,92.85
2022-09-14T07:56:35.072Z,92.24
2022-09-14T07:59:30.868Z,92.25
2022-09-14T08:01:50.101Z,91.80
2022-09-14T08:04:16.980Z,91.05
2022-09-14T08:06:43.539Z,90.56
2022-09-14T08:09:10.074Z,90.04
2022-09-14T08:11:38.179Z,88.98
2022-09-14T08:14:09.932Z,88.69
2022-09-14T08:16:38.689Z,88.05
2022-09-14T08:19:07.489Z,87.52
2022-09-14T08:21:35.575Z,86.86
2022-09-14T08:24:04.287Z,86.72
2022-09-14T08:26:31.424Z,85.93
2022-09-14T08:29:00.525Z,85.61
2022-09-14T08:31:28.309Z,85.27
2022-09-14T08:33:56.347Z,84.90
2022-09-14T08:36:23.963Z,84.32
2022-09-14T08:38:50.619Z,83.37
2022-09-14T08:41:29.266Z,81.82
2022-09-14T08:44:02.360Z,81.81
2022-09-14T08:46:34.569Z,81.93
2022-09-14T08:49:05.289Z,82.38
2022-09-14T08:51:31.955Z,81.27
2022-09-14T08:54:01.837Z,80.22
2022-09-14T08:56:39.967Z,78.90
2022-09-14T08:59:39.956Z,79.48
2022-09-14T09:02:33.177Z,78.29
2022-09-14T09:05:27.572Z,78.56
2022-09-14T09:08:18.058Z,77.73
2022-09-14T09:10:46.664Z,77.41
2022-09-14T09:13:21.727Z,77.12
2022-09-14T09:15:51.506Z,76.76
2022-09-14T09:18:34.640Z,76.19
2022-09-14T09:21:13.686Z,76.31
2022-09-14T09:23:41.226Z,76.79
2022-09-14T09:26:30.954Z,76.62
2022-09-14T09:29:00.305Z,75.81
2022-09-14T09:31:39.599Z,76.31
2022-09-14T09:34:30.083Z,76.49
2022-09-14T09:37:16.087Z,76.41
2022-09-14T09:39:43.927Z,76.34
2022-09-14T09:42:23.969Z,74.83
2022-09-14T09:45:03.251Z,74.01
2022-09-14T09:47:35.584Z,73.81
2022-09-14T09:50:16.079Z,74.01
2022-09-14T09:52:54.549Z,73.37
2022-09-14T09:55:22.958Z,73.65
2022-09-14T09:57:49.647Z,72.08
2022-09-14T10:00:27.917Z,70.76
2022-09-14T10:02:55.769Z,71.45
2022-09-14T10:05:34.273Z,71.48
2022-09-14T10:08:02.399Z,71.39
2022-09-14T10:10:35.064Z,69.87
2022-09-14T10:13:04.510Z,69.04
2022-09-14T10:15:33.659Z,68.62
2022-09-14T10:18:16.765Z,68.98
2022-09-14T10:20:51.687Z,69.88
2022-09-14T10:23:18.236Z,68.13
2022-09-14T10:26:10.452Z,67.72
2022-09-14T10:28:38.136Z,68.31
2022-09-14T10:31:08.643Z,68.88
2022-09-14T10:33:35.555Z,69.80
2022-09-14T10:36:29.719Z,69.17
2022-09-14T10:39:00.638Z,69.34
2022-09-14T10:41:43.564Z,69.13
2022-09-14T10:49:09.089Z,66.24
2022-09-14T10:51:47.032Z,65.52
2022-09-14T10:54:50.822Z,66.25
2022-09-14T10:57:52.994Z,64.99
2022-09-14T11:00:20.658Z,63.57
2022-09-14T11:03:05.410Z,63.02
2022-09-14T11:06:04.808Z,62.92
2022-09-14T11:08:46.377Z,63.53
2022-09-14T11:11:22.906Z,64.34
2022-09-14T11:14:24.178Z,65.14
2022-09-14T11:17:05.976Z,66.17
2022-09-14T11:19:41.763Z,65.49
2022-09-14T11:22:30.206Z,65.01
2022-09-14T11:25:03.485Z,65.04
2022-09-14T11:27:36.797Z,64.44
2022-09-14T11:30:11.469Z,64.81
2022-09-14T11:32:45.337Z,65.73
2022-09-14T11:35:19.213Z,65.57
2022-09-14T11:37:55.193Z,66.31
2022-09-14T11:40:31.418Z,65.56
2022-09-14T11:43:05.957Z,65.36
2022-09-14T11:45:41.454Z,65.86
2022-09-14T11:48:41.431Z,65.10
2022-09-14T11:51:11.461Z,64.73
2022-09-14T11:53:40.671Z,65.32
2022-09-14T11:56:23.797Z,65.24
2022-09-14T11:58:50.878Z,65.53
2022-09-14T12:01:32.541Z,65.54
2022-09-14T12:04:02.041Z,64.22
2022-09-14T12:06:28.599Z,64.09
2022-09-14T12:08:55.427Z,64.13
2022-09-14T12:11:33.672Z,63.61
2022-09-14T12:14:36.669Z,62.06
2022-09-14T12:17:22.482Z,62.46
2022-09-14T12:19:57.963Z,63.67
2022-09-14T12:22:37.556Z,63.72
2022-09-14T12:25:10.155Z,63.92
2022-09-14T12:27:39.490Z,64.53
2022-09-14T12:30:40.943Z,65.35
2022-09-14T12:33:36.897Z,65.89
2022-09-14T12:36:11.645Z,66.37
2022-09-14T12:38:38.235Z,66.49
2022-09-14T12:41:10.944Z,66.93
2022-09-14T12:43:37.755Z,66.39
2022-09-14T12:46:20.889Z,66.32
2022-09-14T12:48:47.665Z,66.77
2022-09-14T12:51:32.755Z,67.38
2022-09-14T12:54:08.397Z,68.57
2022-09-14T12:56:42.336Z,69.84
2022-09-14T12:59:45.826Z,70.01
2022-09-14T13:02:50.378Z,70.19
2022-09-14T13:05:23.851Z,70.78
2022-09-14T13:07:51.210Z,70.55
2022-09-14T13:10:31.452Z,70.03
2022-09-14T13:13:00.227Z,68.32
2022-09-14T13:15:32.251Z,67.82
2022-09-14T13:18:24.725Z,65.97
2022-09-14T13:20:56.193Z,66.29
2022-09-14T13:23:28.310Z,67.02
2022-09-14T13:25:55.251Z,67.21
2022-09-14T13:28:26.638Z,68.14
2022-09-14T13:30:59.358Z,68.75
2022-09-14T13:33:27.353Z,67.74
2022-09-14T13:36:00.134Z,67.80
2022-09-14T13:38:30.984Z,68.52
2022-09-14T13:41:09.454Z,68.72
2022-09-14T13:43:36.323Z,68.56
2022-09-14T13:46:08.086Z,68.44
2022-09-14T13:48:40.181Z,69.21
2022-09-14T13:51:07.869Z,69.45
2022-09-14T13:53:50.978Z,68.84
2022-09-14T13:56:26.583Z,68.60
2022-09-14T13:59:21.734Z,67.77
2022-09-14T14:01:58.700Z,68.08
2022-09-14T14:04:35.708Z,68.36
2022-09-14T14:07:16.335Z,69.14
2022-09-14T14:09:52.030Z,69.14
2022-09-14T14:12:31.247Z,68.66
2022-09-14T14:15:03.441Z,69.22
2022-09-14T14:17:29.928Z,69.30
2022-09-14T14:19:58.916Z,69.78
2022-09-14T14:22:32.478Z,69.54
2022-09-14T14:25:13.283Z,69.72
2022-09-14T14:27:44.618Z,69.27
2022-09-14T14:30:18.727Z,69.14
2022-09-14T14:32:53.415Z,69.63
2022-09-14T14:35:25.457Z,69.06
2022-09-14T14:37:52.198Z,68.88
2022-09-14T14:40:19.847Z,68.98
2022-09-14T14:42:49.088Z,68.78
2022-09-14T14:45:19.351Z,69.29
2022-09-14T14:47:47.296Z,69.08
2022-09-14T14:50:22.856Z,69.97
2022-09-14T14:52:51.508Z,70.09
2022-09-14T14:55:20.426Z,70.13
2022-09-14T14:57:51.816Z,70.22
2022-09-14T15:00:23.753Z,70.15
2022-09-14T15:02:51.366Z,70.47
2022-09-14T15:05:18.443Z,70.39
2022-09-14T15:07:45.561Z,70.95
2022-09-14T15:10:16.662Z,71.40
2022-09-14T15:12:44.211Z,72.39
2022-09-14T15:15:15.965Z,73.99
2022-09-14T15:17:43.331Z,74.73
2022-09-14T15:20:10.875Z,76.37
2022-09-14T15:22:37.881Z,76.97
2022-09-14T15:25:05.778Z,77.99
2022-09-14T15:27:33.049Z,78.16
2022-09-14T15:29:59.624Z,79.43
2022-09-14T15:32:26.218Z,79.95
2022-09-14T15:34:55.654Z,80.37
2022-09-14T15:37:22.190Z,80.58
2022-09-14T15:39:50.676Z,81.64
2022-09-14T15:42:18.549Z,82.14
2022-09-14T15:44:45.312Z,82.60
2022-09-14T15:47:14.653Z,82.41
2022-09-14T15:49:42.480Z,83.01
2022-09-14T15:52:11.406Z,82.93
2022-09-14T15:54:39.131Z,82.65
2022-09-14T15:57:09.011Z,82.97
2022-09-14T15:59:35.655Z,82.61
2022-09-14T16:02:02.830Z,82.52
2022-09-14T16:04:34.424Z,81.19
2022-09-14T16:07:00.949Z,78.64
2022-09-14T16:09:27.502Z,75.78
2022-09-14T16:11:57.173Z,72.60
2022-09-14T16:14:26.169Z,71.08
2022-09-14T16:16:52.764Z,71.81
2022-09-14T16:19:19.363Z,72.78
2022-09-14T16:21:47.593Z,73.51
2022-09-14T16:24:18.183Z,73.96
2022-09-14T16:26:45.986Z,74.40
2022-09-14T16:29:14.959Z,74.84
2022-09-14T16:31:44.599Z,75.37
2022-09-14T16:34:14.897Z,75.20
2022-09-14T16:36:42.597Z,75.38
2022-09-14T16:39:16.412Z,75.21
2022-09-14T16:41:43.995Z,74.99
2022-09-14T16:44:19.154Z,74.51
2022-09-14T16:46:46.614Z,74.20
2022-09-14T16:49:13.240Z,72.82
2022-09-14T16:51:40.208Z,70.02
2022-09-14T16:54:07.664Z,67.01
2022-09-14T16:56:36.592Z,67.82
2022-09-14T16:59:04.379Z,67.76
2022-09-14T17:01:32.049Z,62.13
2022-09-14T17:04:08.645Z,56.65
2022-09-14T17:06:38.347Z,57.89
2022-09-14T17:09:17.274Z,60.70
2022-09-14T17:11:45.177Z,63.69
2022-09-14T17:14:17.781Z,66.29
2022-09-14T17:16:44.893Z,68.06
2022-09-14T17:19:12.016Z,69.61
2022-09-14T17:21:40.440Z,70.88
2022-09-14T17:24:07.936Z,71.83
2022-09-14T17:26:35.120Z,73.22
2022-09-14T17:29:02.436Z,74.41
2022-09-14T17:31:35.451Z,75.33
2022-09-14T17:34:03.952Z,76.37
2022-09-14T17:36:30.803Z,77.14
2022-09-14T17:38:59.664Z,78.06
2022-09-14T17:41:28.131Z,78.64
2022-09-14T17:43:57.203Z,79.00
2022-09-14T17:46:24.231Z,79.55
2022-09-14T17:48:51.480Z,79.56
2022-09-14T17:51:21.206Z,79.79
2022-09-14T17:53:50.269Z,80.00
2022-09-14T17:56:20.080Z,80.20
2022-09-14T17:58:47.950Z,80.12
2022-09-14T18:01:21.216Z,79.89
2022-09-14T18:03:54.261Z,79.62
2022-09-14T18:06:23.749Z,79.92
2022-09-14T18:08:55.412Z,79.95
2022-09-14T18:11:22.611Z,80.37
2022-09-14T18:13:49.851Z,80.36
2022-09-14T18:16:19.396Z,80.68
2022-09-14T18:18:46.483Z,80.74
2022-09-14T18:21:14.868Z,80.65
2022-09-14T18:23:41.427Z,80.63
2022-09-14T18:26:08.307Z,80.72
2022-09-14T18:28:36.058Z,81.13
2022-09-14T18:31:11.583Z,81.14
2022-09-14T18:33:38.429Z,81.25
2022-09-14T18:36:06.618Z,81.52
2022-09-14T18:38:33.665Z,81.53
2022-09-14T18:41:08.396Z,81.81
2022-09-14T18:43:35.847Z,81.89
2022-09-14T18:46:07.442Z,82.15
2022-09-14T18:48:35.099Z,81.95
2022-09-14T18:51:04.543Z,81.84
2022-09-14T18:53:31.591Z,82.02
2022-09-14T18:56:09.729Z,82.33
2022-09-14T18:58:38.638Z,82.50
2022-09-14T19:01:06.355Z,82.51
2022-09-14T19:03:33.533Z,82.28
2022-09-14T19:06:14.708Z,82.63
2022-09-14T19:08:42.015Z,82.84
2022-09-14T19:11:11.665Z,82.67
2022-09-14T19:13:38.495Z,82.86
2022-09-14T19:16:10.735Z,83.22
2022-09-14T19:18:38.161Z,83.08
2022-09-14T19:21:10.153Z,83.29
2022-09-14T19:23:37.086Z,83.40
2022-09-14T19:26:18.281Z,83.81
2022-09-14T19:28:44.966Z,83.70
2022-09-14T19:31:14.509Z,84.00
2022-09-14T19:33:45.465Z,83.99
2022-09-14T19:36:17.230Z,84.33
2022-09-14T19:38:44.736Z,84.41
2022-09-14T19:41:11.658Z,84.34
2022-09-14T19:43:38.640Z,84.83
2022-09-14T19:46:07.330Z,84.98
2022-09-14T19:48:34.953Z,84.96
2022-09-14T19:51:05.089Z,85.14
2022-09-14T19:53:33.223Z,85.30
2022-09-14T19:56:02.311Z,85.55
2022-09-14T19:58:29.885Z,85.67
2022-09-14T20:00:57.471Z,85.43
2022-09-14T20:03:24.992Z,85.35
2022-09-14T20:06:08.417Z,85.61
2022-09-14T20:08:35.790Z,85.50
2022-09-14T20:11:11.507Z,85.50
2022-09-14T20:13:39.296Z,85.59
2022-09-14T20:16:30.670Z,85.57
2022-09-14T20:18:58.298Z,85.50
2022-09-14T20:21:26.870Z,85.66
2022-09-14T20:24:15.016Z,85.59
2022-09-14T20:26:42.787Z,85.63
2022-09-14T20:29:09.632Z,85.59
2022-09-14T20:31:36.245Z,85.47
2022-09-14T20:34:03.197Z,85.21
2022-09-14T20:36:29.881Z,85.50
2022-09-14T20:38:58.724Z,84.96
2022-09-14T20:41:31.447Z,85.01
2022-09-14T20:43:58.041Z,84.92
2022-09-14T20:46:36.381Z,85.38
2022-09-14T20:49:05.454Z,85.34
2022-09-14T20:51:32.517Z,85.47
2022-09-14T20:53:59.086Z,85.42
2022-09-14T20:56:28.569Z,85.38
2022-09-14T20:58:56.859Z,85.46
2022-09-14T21:01:25.704Z,85.11
2022-09-14T21:03:52.627Z,85.25
2022-09-14T21:06:22.413Z,85.03
2022-09-14T21:08:49.330Z,85.13
2022-09-14T21:11:21.884Z,85.01
2022-09-14T21:13:49.317Z,84.73
2022-09-14T21:16:21.245Z,84.69
2022-09-14T21:18:51.547Z,84.52
2022-09-14T21:21:19.626Z,84.67
2022-09-14T21:23:48.627Z,84.39
2022-09-14T21:26:15.390Z,84.15
2022-09-14T21:28:42.524Z,84.36
2022-09-14T21:31:17.876Z,84.43
2022-09-14T21:33:48.361Z,84.02
2022-09-14T21:36:20.798Z,84.34
2022-09-14T21:38:52.549Z,83.84
2022-09-14T21:41:20.290Z,83.96
2022-09-14T21:43:47.389Z,83.82
2022-09-14T21:46:14.490Z,84.00
2022-09-14T21:48:41.317Z,84.10
2022-09-14T21:51:18.781Z,84.24
2022-09-14T21:53:56.703Z,84.36
2022-09-14T21:56:25.424Z,84.55
2022-09-14T21:58:56.759Z,84.67
2022-09-14T22:01:24.479Z,84.69
2022-09-14T22:03:52.778Z,84.46
2022-09-14T22:06:22.193Z,84.31
2022-09-14T22:08:50.400Z,84.29
2022-09-14T22:11:23.222Z,84.50
2022-09-14T22:13:58.171Z,84.60
2022-09-14T22:16:26.638Z,84.65
2022-09-14T22:18:56.797Z,84.81
2022-09-14T22:21:25.291Z,85.13
2022-09-14T22:23:54.387Z,84.92
2022-09-14T22:26:21.925Z,84.73
2022-09-14T22:28:50.399Z,84.95
2022-09-14T22:31:18.623Z,85.04
2022-09-14T22:33:45.424Z,84.83
2022-09-14T22:36:12.483Z,84.65
2022-09-14T22:38:41.060Z,84.81
2022-09-14T22:41:12.785Z,84.82
2022-09-14T22:43:40.153Z,84.71
2022-09-14T22:46:07.922Z,84.77
2022-09-14T22:48:35.165Z,84.83
2022-09-14T22:51:02.296Z,84.76
2022-09-14T22:53:29.562Z,84.78
2022-09-14T22:55:56.146Z,84.76
2022-09-14T22:58:25.029Z,84.63
2022-09-14T23:00:52.373Z,84.73
2022-09-14T23:03:20.214Z,84.74
2022-09-14T23:05:52.162Z,84.74
2022-09-14T23:08:19.423Z,84.44
2022-09-14T23:10:47.050Z,84.60
2022-09-14T23:13:15.075Z,84.76
2022-09-14T23:15:42.220Z,84.82
2022-09-14T23:18:08.990Z,84.84
2022-09-14T23:20:37.344Z,85.17
2022-09-14T23:23:03.945Z,85.08
2022-09-14T23:25:31.403Z,85.33
2022-09-14T23:27:57.953Z,85.14
2022-09-14T23:30:24.533Z,85.58
2022-09-14T23:32:51.066Z,85.46
2022-09-14T23:35:17.957Z,85.92
2022-09-14T23:37:44.499Z,86.14
2022-09-14T23:40:11.249Z,86.22
2022-09-14T23:42:37.973Z,86.39
2022-09-14T23:45:05.344Z,86.95
2022-09-14T23:47:31.892Z,87.13
2022-09-14T23:49:58.462Z,87.43
2022-09-14T23:52:25.072Z,87.60
2022-09-14T23:54:51.655Z,88.00
2022-09-14T23:57:18.192Z,88.61
2022-09-14T23:59:44.891Z,89.36
